Time;durP1;ratioP1;P1;durP2;ratioP2;P2;SDS_P1;SDS_P2;PMS_P1;PMS_P2;Temp;Humidity;BMP_temperature;BMP_pressure;BME280_temperature;BME280_humidity;BME280_pressure;Samples;Min_cycle;Max_cycle;Signal;HPM_P1;HPM_P2
2023/07/13 00:01:38;;;;;;;0.50;0.40;;;17.00;99.90;;;;;;5001672;28;20456;-81
2023/07/13 00:04:05;;;;;;;0.50;0.40;;;17.00;99.90;;;;;;5002854;28;20475;-83
2023/07/13 00:06:32;;;;;;;0.50;0.40;;;16.90;99.90;;;;;;4995202;28;20446;-82
2023/07/13 00:09:01;;;;;;;0.50;0.40;;;16.90;99.90;;;;;;4995414;28;20442;-79
2023/07/13 00:11:28;;;;;;;0.50;0.37;;;16.90;99.90;;;;;;5005687;28;20460;-81
2023/07/13 00:13:55;;;;;;;0.50;0.30;;;16.80;99.90;;;;;;5010277;28;20458;-82
2023/07/13 00:16:21;;;;;;;0.50;0.30;;;16.80;99.90;;;;;;5004799;28;20499;-82
2023/07/13 00:18:48;;;;;;;0.50;0.30;;;16.80;99.90;;;;;;4999320;28;20477;-81
2023/07/13 00:21:15;;;;;;;0.50;0.40;;;16.70;99.90;;;;;;5006528;28;20448;-82
2023/07/13 00:23:43;;;;;;;0.50;0.40;;;16.70;99.90;;;;;;5006933;28;20489;-81
2023/07/13 00:26:13;;;;;;;0.50;0.30;;;16.70;99.90;;;;;;5006135;28;20449;-81
2023/07/13 00:28:41;;;;;;;0.50;0.33;;;16.70;99.90;;;;;;5001837;28;20447;-81
2023/07/13 00:31:08;;;;;;;0.50;0.30;;;16.70;99.90;;;;;;5003955;28;20445;-81
2023/07/13 00:33:35;;;;;;;2.20;1.77;;;16.60;99.90;;;;;;5001887;28;20457;-82
2023/07/13 00:36:02;;;;;;;0.50;0.40;;;16.60;99.90;;;;;;4995203;28;20444;-81
2023/07/13 00:38:29;;;;;;;0.50;0.40;;;16.50;99.90;;;;;;5006977;28;20562;-82
2023/07/13 00:40:56;;;;;;;0.50;0.30;;;16.50;99.90;;;;;;4998398;28;20511;-81
2023/07/13 00:43:27;;;;;;;0.50;0.40;;;16.50;99.90;;;;;;4998060;28;20468;-81
2023/07/13 00:46:17;;;;;;;0.50;0.40;;;16.50;99.90;;;;;;5006694;28;20971;-82
2023/07/13 00:48:47;;;;;;;0.50;0.30;;;16.60;99.90;;;;;;4995787;28;20447;-82
2023/07/13 00:51:16;;;;;;;0.50;0.40;;;16.60;99.90;;;;;;4998073;28;21039;-81
2023/07/13 00:53:43;;;;;;;0.50;0.37;;;16.60;99.90;;;;;;5006071;28;20472;-81
2023/07/13 00:56:11;;;;;;;0.50;0.40;;;16.50;99.90;;;;;;5006010;28;20439;-82
2023/07/13 00:58:40;;;;;;;0.60;0.60;;;16.50;99.90;;;;;;5001819;28;20480;-81
2023/07/13 01:01:06;;;;;;;0.50;0.40;;;16.50;99.90;;;;;;5003575;28;20444;-81
2023/07/13 01:03:35;;;;;;;0.50;0.40;;;16.50;99.90;;;;;;5006378;28;20541;-82
2023/07/13 01:06:02;;;;;;;0.50;0.40;;;16.50;99.90;;;;;;5006244;28;20443;-81
2023/07/13 01:08:29;;;;;;;0.50;0.40;;;16.30;99.90;;;;;;4990859;28;20489;-81
2023/07/13 01:10:57;;;;;;;1.17;1.07;;;16.30;99.90;;;;;;5005863;28;20531;-81
2023/07/13 01:13:25;;;;;;;6.00;1.60;;;16.30;99.90;;;;;;5005259;28;20962;-80
2023/07/13 01:15:55;;;;;;;0.50;0.40;;;16.20;99.90;;;;;;5006736;28;20432;-81
2023/07/13 01:18:26;;;;;;;0.50;0.40;;;16.20;99.90;;;;;;5005737;28;20481;-83
2023/07/13 01:20:56;;;;;;;0.50;0.40;;;16.20;99.90;;;;;;5005041;28;20462;-81
2023/07/13 01:23:25;;;;;;;0.50;0.40;;;16.10;99.90;;;;;;5006505;28;20466;-81
2023/07/13 01:25:52;;;;;;;0.50;0.40;;;16.10;99.90;;;;;;5006892;28;20463;-81
2023/07/13 01:28:18;;;;;;;0.70;0.60;;;16.00;99.90;;;;;;5005654;28;20949;-82
2023/07/13 01:30:46;;;;;;;0.50;0.40;;;16.00;99.90;;;;;;5007390;28;20492;-81
2023/07/13 01:33:16;;;;;;;0.50;0.40;;;16.00;99.90;;;;;;5008974;28;20465;-80
2023/07/13 01:35:43;;;;;;;0.50;0.40;;;16.00;99.90;;;;;;5002189;28;20532;-81
2023/07/13 01:38:12;;;;;;;0.50;0.40;;;16.00;99.90;;;;;;5009583;28;20479;-81
2023/07/13 01:40:40;;;;;;;0.50;0.40;;;15.90;99.90;;;;;;5005362;28;20446;-81
2023/07/13 01:43:07;;;;;;;0.50;0.40;;;15.90;99.90;;;;;;4999292;28;20471;-80
2023/07/13 01:45:34;;;;;;;0.50;0.40;;;15.90;99.90;;;;;;5005198;28;20517;-80
2023/07/13 01:48:01;;;;;;;2.30;2.20;;;15.90;99.90;;;;;;5009112;28;20516;-80
2023/07/13 01:50:28;;;;;;;0.50;0.40;;;15.80;99.90;;;;;;5015276;28;20507;-80
2023/07/13 01:52:55;;;;;;;0.50;0.40;;;15.80;99.90;;;;;;4998209;28;20470;-80
2023/07/13 01:55:23;;;;;;;0.50;0.40;;;15.80;99.90;;;;;;4996204;28;20547;-80
2023/07/13 01:57:50;;;;;;;0.50;0.40;;;15.80;99.90;;;;;;4998519;28;20444;-80
2023/07/13 02:00:17;;;;;;;0.87;0.87;;;15.80;99.90;;;;;;4989757;28;20524;-80
2023/07/13 02:02:44;;;;;;;0.50;0.30;;;15.70;99.90;;;;;;4998852;28;20491;-80
2023/07/13 02:05:11;;;;;;;0.50;0.33;;;15.70;99.90;;;;;;4990382;28;20503;-81
2023/07/13 02:07:38;;;;;;;0.50;0.40;;;15.60;99.90;;;;;;4999039;28;20449;-80
2023/07/13 02:10:06;;;;;;;0.50;0.40;;;15.60;99.90;;;;;;4990416;28;20445;-80
2023/07/13 02:12:33;;;;;;;0.50;0.37;;;15.50;99.90;;;;;;4997583;28;20446;-80
2023/07/13 02:15:00;;;;;;;0.50;0.37;;;15.50;99.90;;;;;;4989501;28;20452;-78
2023/07/13 02:17:27;;;;;;;0.93;0.70;;;15.60;99.90;;;;;;4999612;28;20459;-80
2023/07/13 02:19:54;;;;;;;0.50;0.40;;;15.60;99.90;;;;;;4993774;28;20479;-81
2023/07/13 02:22:22;;;;;;;0.50;0.40;;;15.60;99.90;;;;;;5000644;28;20449;-81
2023/07/13 02:24:48;;;;;;;0.50;0.40;;;15.60;99.90;;;;;;4998180;28;20448;-80
2023/07/13 02:27:16;;;;;;;0.50;0.40;;;15.60;99.90;;;;;;5003806;28;20446;-81
2023/07/13 02:29:44;;;;;;;0.50;0.40;;;15.50;99.90;;;;;;5004076;28;20441;-81
2023/07/13 02:32:11;;;;;;;0.50;0.40;;;15.50;99.90;;;;;;5003330;28;20449;-80
2023/07/13 02:34:38;;;;;;;0.50;0.30;;;15.40;99.90;;;;;;4988830;28;21117;-80
2023/07/13 02:37:05;;;;;;;0.50;0.40;;;15.40;99.90;;;;;;5004455;28;20444;-80
2023/07/13 02:39:33;;;;;;;0.50;0.40;;;15.40;99.90;;;;;;5003402;28;21004;-80
2023/07/13 02:42:00;;;;;;;0.50;0.40;;;15.30;99.90;;;;;;5001651;28;20510;-80
2023/07/13 02:44:27;;;;;;;0.50;0.40;;;15.30;99.90;;;;;;5003263;28;20619;-78
2023/07/13 02:46:55;;;;;;;0.50;0.40;;;15.30;99.90;;;;;;5006852;28;20608;-82
2023/07/13 02:49:22;;;;;;;1.13;0.70;;;15.30;99.90;;;;;;5003467;28;21063;-80
2023/07/13 02:51:49;;;;;;;0.50;0.50;;;15.30;99.90;;;;;;4992137;28;20447;-80
2023/07/13 02:54:16;;;;;;;0.50;0.40;;;15.30;99.90;;;;;;4999443;28;20475;-81
2023/07/13 02:56:43;;;;;;;0.50;0.40;;;15.30;99.90;;;;;;5002900;28;21035;-81
2023/07/13 02:59:10;;;;;;;0.70;0.40;;;15.30;99.90;;;;;;4994762;28;20479;-80
2023/07/13 03:01:37;;;;;;;0.50;0.37;;;15.30;99.90;;;;;;4991487;28;20441;-79
2023/07/13 03:04:06;;;;;;;1.57;0.93;;;15.30;99.90;;;;;;4998035;28;20471;-80
2023/07/13 03:06:33;;;;;;;0.60;0.60;;;15.30;99.90;;;;;;4995031;28;20816;-80
2023/07/13 03:09:00;;;;;;;0.50;0.40;;;15.30;99.90;;;;;;4995871;28;20445;-80
2023/07/13 03:11:27;;;;;;;0.50;0.40;;;15.30;99.90;;;;;;5003359;28;20445;-80
2023/07/13 03:13:54;;;;;;;0.60;0.50;;;15.30;99.90;;;;;;4995027;28;20499;-80
2023/07/13 03:16:21;;;;;;;0.50;0.40;;;15.30;99.90;;;;;;5002996;28;20446;-81
2023/07/13 03:18:48;;;;;;;0.50;0.40;;;15.20;99.90;;;;;;5007657;28;20596;-81
2023/07/13 03:21:17;;;;;;;0.50;0.40;;;15.20;99.90;;;;;;4999647;28;20449;-82
2023/07/13 03:23:44;;;;;;;0.50;0.40;;;15.20;99.90;;;;;;5008484;28;20460;-83
2023/07/13 03:26:13;;;;;;;0.50;0.40;;;15.20;99.90;;;;;;4999982;28;20448;-83
2023/07/13 03:28:40;;;;;;;0.50;0.40;;;15.10;99.90;;;;;;5004739;28;20440;-83
2023/07/13 03:31:09;;;;;;;0.50;0.40;;;15.10;99.90;;;;;;5003610;28;20516;-83
2023/07/13 03:33:36;;;;;;;0.50;0.40;;;15.10;99.90;;;;;;4999444;28;20812;-83
2023/07/13 03:36:04;;;;;;;1.00;0.60;;;15.10;99.90;;;;;;5000373;28;20447;-82
2023/07/13 03:38:33;;;;;;;0.60;0.60;;;15.10;99.90;;;;;;5005830;28;20448;-82
2023/07/13 03:41:00;;;;;;;0.50;0.40;;;15.10;99.90;;;;;;4996243;28;20449;-83
2023/07/13 03:43:27;;;;;;;0.50;0.40;;;15.10;99.90;;;;;;5005640;28;20867;-80
2023/07/13 03:45:53;;;;;;;0.50;0.37;;;15.20;99.90;;;;;;5008033;28;20452;-82
2023/07/13 03:48:20;;;;;;;0.50;0.40;;;15.20;99.90;;;;;;5006942;28;20446;-82
2023/07/13 03:50:49;;;;;;;0.50;0.40;;;15.30;99.90;;;;;;4995769;28;20505;-83
2023/07/13 03:53:15;;;;;;;2.40;0.87;;;15.30;99.90;;;;;;5003765;28;20910;-81
2023/07/13 03:55:44;;;;;;;0.50;0.40;;;15.40;99.90;;;;;;5007615;28;20519;-82
2023/07/13 03:58:36;;;;;;;0.93;0.60;;;15.40;99.90;;;;;;5006790;28;20440;-82
2023/07/13 04:01:05;;;;;;;0.50;0.40;;;15.40;99.90;;;;;;4980661;28;20453;-83
2023/07/13 04:03:32;;;;;;;0.50;0.40;;;15.40;99.90;;;;;;5005687;28;20465;-82
2023/07/13 04:06:00;;;;;;;2.10;0.40;;;15.40;99.90;;;;;;4999835;28;20454;-82
2023/07/13 04:08:28;;;;;;;0.50;0.40;;;15.30;99.90;;;;;;5007329;28;20871;-82
2023/07/13 04:10:56;;;;;;;0.50;0.40;;;15.30;99.90;;;;;;5006690;28;20463;-82
2023/07/13 04:13:24;;;;;;;0.50;0.40;;;15.30;99.90;;;;;;4998670;28;20477;-81
2023/07/13 04:15:51;;;;;;;0.50;0.40;;;15.30;99.90;;;;;;4999290;28;20442;-82
2023/07/13 04:18:19;;;;;;;0.50;0.40;;;15.30;99.90;;;;;;5006507;28;20515;-83
2023/07/13 04:20:46;;;;;;;0.50;0.40;;;15.40;99.90;;;;;;5006594;28;20473;-82
2023/07/13 04:23:13;;;;;;;0.60;0.40;;;15.40;99.90;;;;;;5007296;28;20463;-82
2023/07/13 04:25:40;;;;;;;0.50;0.40;;;15.50;99.90;;;;;;5006952;28;20447;-80
2023/07/13 04:28:08;;;;;;;3.57;3.37;;;15.50;99.90;;;;;;4998044;28;20509;-83
2023/07/13 04:30:35;;;;;;;0.50;0.40;;;15.50;99.90;;;;;;5007227;28;20467;-82
2023/07/13 04:33:02;;;;;;;0.50;0.40;;;15.60;99.90;;;;;;4995086;28;20461;-82
2023/07/13 04:35:28;;;;;;;0.50;0.40;;;15.60;99.90;;;;;;4995436;28;20459;-81
2023/07/13 04:37:55;;;;;;;0.50;0.40;;;15.70;99.90;;;;;;5006078;28;20446;-83
2023/07/13 04:40:22;;;;;;;0.50;0.40;;;15.70;99.90;;;;;;4997136;28;20479;-83
2023/07/13 04:42:49;;;;;;;0.50;0.40;;;15.80;99.90;;;;;;4990785;28;20563;-81
2023/07/13 04:45:17;;;;;;;0.50;0.40;;;15.80;99.90;;;;;;5006138;28;20452;-82
2023/07/13 04:47:44;;;;;;;0.50;0.40;;;15.80;99.90;;;;;;4997910;28;20441;-81
2023/07/13 04:50:15;;;;;;;0.50;0.40;;;15.90;99.90;;;;;;4997726;28;20508;-82
2023/07/13 04:52:41;;;;;;;0.50;0.40;;;15.80;99.90;;;;;;5001909;28;20503;-81
2023/07/13 04:55:09;;;;;;;0.50;0.40;;;15.90;99.90;;;;;;4995447;28;20440;-81
2023/07/13 04:57:36;;;;;;;0.50;0.40;;;15.90;99.90;;;;;;4989369;28;20438;-81
2023/07/13 05:00:06;;;;;;;0.50;0.40;;;15.80;99.90;;;;;;4996612;28;21027;-80
2023/07/13 05:02:35;;;;;;;0.50;0.40;;;15.90;99.90;;;;;;4989609;28;20449;-81
2023/07/13 05:05:03;;;;;;;2.80;1.03;;;15.90;99.90;;;;;;5024377;22;20578;-80
2023/07/13 05:07:30;;;;;;;0.50;0.40;;;15.90;99.90;;;;;;5020848;28;20822;-81
2023/07/13 05:09:57;;;;;;;1.10;0.80;;;15.90;99.90;;;;;;5017726;28;20923;-81
2023/07/13 05:12:23;;;;;;;1.13;0.60;;;16.00;99.90;;;;;;5016761;28;20443;-80
2023/07/13 05:14:50;;;;;;;0.50;0.40;;;16.00;99.90;;;;;;5008767;28;20467;-80
2023/07/13 05:17:17;;;;;;;0.50;0.30;;;16.00;99.90;;;;;;5016601;28;20455;-77
2023/07/13 05:19:45;;;;;;;2.60;0.53;;;16.00;99.90;;;;;;5015998;28;20478;-81
2023/07/13 05:22:12;;;;;;;0.50;0.40;;;16.10;99.90;;;;;;5016155;28;20446;-81
2023/07/13 05:24:39;;;;;;;0.50;0.40;;;16.00;99.90;;;;;;5018312;28;20843;-80
2023/07/13 05:27:06;;;;;;;0.70;0.70;;;16.00;99.90;;;;;;5020355;28;20449;-80
2023/07/13 05:29:33;;;;;;;0.50;0.30;;;16.00;99.90;;;;;;5018145;28;20442;-81
2023/07/13 05:32:00;;;;;;;0.50;0.40;;;16.10;99.90;;;;;;5012084;28;20466;-80
2023/07/13 05:34:27;;;;;;;0.50;0.30;;;16.20;99.90;;;;;;5019350;28;20507;-77
2023/07/13 05:36:55;;;;;;;0.50;0.50;;;16.30;99.90;;;;;;5008394;28;20451;-80
2023/07/13 05:39:22;;;;;;;0.77;0.77;;;16.30;99.90;;;;;;5023349;28;20480;-80
2023/07/13 05:41:49;;;;;;;0.50;0.50;;;16.50;99.90;;;;;;5015872;28;20443;-81
2023/07/13 05:44:16;;;;;;;0.50;0.40;;;16.60;99.90;;;;;;5016897;28;20477;-80
2023/07/13 05:46:42;;;;;;;0.60;0.47;;;16.70;99.90;;;;;;5023198;28;20465;-80
2023/07/13 05:49:09;;;;;;;0.93;0.93;;;16.80;99.90;;;;;;5016272;28;20464;-79
2023/07/13 05:51:36;;;;;;;0.50;0.40;;;16.80;99.90;;;;;;5016710;28;20460;-81
2023/07/13 05:54:04;;;;;;;0.50;0.40;;;16.80;99.90;;;;;;5019939;28;20469;-80
2023/07/13 05:56:31;;;;;;;0.50;0.30;;;16.70;99.90;;;;;;5018720;28;20446;-76
2023/07/13 05:58:58;;;;;;;0.50;0.30;;;16.70;99.90;;;;;;5016706;28;20436;-79
2023/07/13 06:01:24;;;;;;;0.50;0.40;;;16.70;99.90;;;;;;5015379;28;20501;-81
2023/07/13 06:03:51;;;;;;;0.50;0.40;;;16.80;99.90;;;;;;5018845;28;20480;-81
2023/07/13 06:06:18;;;;;;;0.50;0.40;;;16.80;99.90;;;;;;5027923;28;20454;-81
2023/07/13 06:08:45;;;;;;;0.50;0.30;;;16.70;99.90;;;;;;5020115;28;20454;-81
2023/07/13 06:11:15;;;;;;;0.63;0.63;;;16.70;99.90;;;;;;5021157;28;20444;-82
2023/07/13 06:13:42;;;;;;;3.03;1.37;;;16.90;99.90;;;;;;5015392;28;20988;-79
2023/07/13 06:16:09;;;;;;;0.50;0.30;;;16.90;99.90;;;;;;5017129;28;20448;-79
2023/07/13 06:18:38;;;;;;;0.57;0.57;;;16.90;99.90;;;;;;5024250;28;20440;-78
2023/07/13 06:21:08;;;;;;;0.60;0.50;;;17.10;99.90;;;;;;5014971;28;20479;-80
2023/07/13 06:23:35;;;;;;;0.50;0.40;;;17.10;99.90;;;;;;5013462;28;20438;-79
2023/07/13 06:26:01;;;;;;;0.90;0.77;;;17.20;99.90;;;;;;5021444;28;20447;-79
2023/07/13 06:28:31;;;;;;;5.40;1.43;;;17.40;99.90;;;;;;5014544;28;20455;-80
2023/07/13 06:30:58;;;;;;;0.50;0.40;;;17.50;99.90;;;;;;5017537;28;20441;-80
2023/07/13 06:33:25;;;;;;;0.50;0.30;;;17.70;99.90;;;;;;5017675;28;20449;-80
2023/07/13 06:35:51;;;;;;;0.50;0.37;;;17.90;99.90;;;;;;5015155;28;20444;-80
2023/07/13 06:38:18;;;;;;;0.50;0.40;;;18.20;99.90;;;;;;5014942;28;20435;-80
2023/07/13 06:40:45;;;;;;;1.00;1.00;;;18.30;99.90;;;;;;5014875;28;20557;-80
2023/07/13 06:43:12;;;;;;;0.97;0.97;;;18.40;99.90;;;;;;5017685;28;20447;-80
2023/07/13 06:45:47;;;;;;;0.60;0.60;;;18.40;99.90;;;;;;5015415;28;20468;-79
2023/07/13 06:48:14;;;;;;;0.50;0.40;;;18.70;99.90;;;;;;5014421;28;20467;-79
2023/07/13 06:50:41;;;;;;;0.90;0.70;;;19.20;99.90;;;;;;5014654;28;20977;-79
2023/07/13 06:53:08;;;;;;;0.50;0.50;;;19.70;99.90;;;;;;5021015;28;20819;-79
2023/07/13 06:55:35;;;;;;;0.50;0.40;;;19.90;99.90;;;;;;5012973;28;20460;-78
2023/07/13 06:58:02;;;;;;;0.57;0.50;;;20.20;99.90;;;;;;5017985;28;20445;-80
2023/07/13 07:00:28;;;;;;;0.53;0.40;;;20.50;99.90;;;;;;5010043;28;20480;-80
2023/07/13 07:02:57;;;;;;;0.67;0.60;;;20.80;99.90;;;;;;5017040;28;21181;-80
2023/07/13 07:05:23;;;;;;;0.50;0.40;;;21.00;99.90;;;;;;5017101;28;20619;-79
2023/07/13 07:07:51;;;;;;;0.50;0.40;;;20.60;99.90;;;;;;5014460;28;20445;-80
2023/07/13 07:10:18;;;;;;;1.07;0.97;;;20.30;99.90;;;;;;5011243;28;20515;-79
2023/07/13 07:12:44;;;;;;;0.67;0.67;;;19.70;99.90;;;;;;5015447;28;20443;-80
2023/07/13 07:15:12;;;;;;;0.73;0.67;;;19.50;99.90;;;;;;5014022;28;20463;-78
2023/07/13 07:17:38;;;;;;;1.33;0.77;;;19.20;99.90;;;;;;5009943;28;20439;-79
2023/07/13 07:20:08;;;;;;;2.93;1.23;;;19.00;99.90;;;;;;5011047;28;20480;-80
2023/07/13 07:22:35;;;;;;;3.23;3.07;;;18.90;99.90;;;;;;5012750;28;20488;-79
2023/07/13 07:25:01;;;;;;;2.40;0.90;;;18.70;99.90;;;;;;5012702;28;20471;-80
2023/07/13 07:27:28;;;;;;;0.50;0.30;;;18.40;99.90;;;;;;5012569;28;20447;-79
2023/07/13 07:29:57;;;;;;;4.97;1.97;;;18.60;99.90;;;;;;5014667;28;20576;-80
2023/07/13 07:32:24;;;;;;;0.93;0.93;;;19.20;99.90;;;;;;5017537;28;20443;-80
2023/07/13 07:34:51;;;;;;;0.50;0.40;;;19.70;99.90;;;;;;5014915;28;20476;-81
2023/07/13 07:37:19;;;;;;;0.50;0.37;;;20.70;99.90;;;;;;5013151;28;20457;-79
2023/07/13 07:39:46;;;;;;;2.40;1.90;;;21.30;99.90;;;;;;5021276;28;20439;-76
2023/07/13 07:42:13;;;;;;;1.10;0.60;;;21.70;99.90;;;;;;5012893;28;20440;-79
2023/07/13 07:44:41;;;;;;;2.60;1.33;;;21.60;99.90;;;;;;5013556;28;20466;-80
2023/07/13 07:47:08;;;;;;;0.80;0.50;;;22.00;99.90;;;;;;5016779;28;20497;-80
2023/07/13 07:49:34;;;;;;;0.50;0.30;;;22.20;99.90;;;;;;5016918;28;20447;-80
2023/07/13 07:52:01;;;;;;;0.67;0.67;;;22.30;99.90;;;;;;5012633;28;20444;-80
2023/07/13 07:54:29;;;;;;;1.07;0.93;;;22.50;99.90;;;;;;5009042;28;20671;-76
2023/07/13 07:56:56;;;;;;;0.60;0.50;;;22.80;99.90;;;;;;5010196;28;20440;-80
2023/07/13 07:59:23;;;;;;;0.77;0.77;;;22.50;99.90;;;;;;5010883;28;20443;-79
2023/07/13 08:01:50;;;;;;;0.50;0.30;;;22.60;99.90;;;;;;5010245;28;20890;-79
2023/07/13 08:04:17;;;;;;;0.80;0.50;;;22.80;99.90;;;;;;5009059;28;20463;-80
2023/07/13 08:06:43;;;;;;;0.50;0.40;;;23.10;99.90;;;;;;5009297;28;20519;-79
2023/07/13 08:09:10;;;;;;;0.73;0.70;;;23.70;99.90;;;;;;5010900;28;20438;-79
2023/07/13 08:11:38;;;;;;;1.83;1.60;;;23.20;99.90;;;;;;5011247;28;20442;-79
2023/07/13 08:14:05;;;;;;;0.50;0.30;;;23.30;99.90;;;;;;5007752;28;20455;-77
2023/07/13 08:16:32;;;;;;;0.50;0.40;;;23.20;99.90;;;;;;5008571;28;20455;-75
2023/07/13 08:18:59;;;;;;;0.60;0.50;;;23.30;99.90;;;;;;5010569;28;20444;-79
2023/07/13 08:21:26;;;;;;;0.50;0.40;;;23.30;99.90;;;;;;5006510;28;20476;-80
2023/07/13 08:23:53;;;;;;;1.43;1.03;;;23.40;99.90;;;;;;5010555;28;20962;-78
2023/07/13 08:26:19;;;;;;;0.50;0.37;;;23.40;99.90;;;;;;5009646;28;20632;-79
2023/07/13 08:28:48;;;;;;;0.50;0.30;;;23.70;99.90;;;;;;5009665;28;20960;-80
2023/07/13 08:31:14;;;;;;;0.50;0.40;;;23.80;99.90;;;;;;5011673;28;20442;-79
2023/07/13 08:33:41;;;;;;;0.50;0.30;;;23.80;99.90;;;;;;5012431;28;20437;-80
2023/07/13 08:36:09;;;;;;;1.20;0.60;;;24.20;99.90;;;;;;5000069;28;20534;-79
2023/07/13 08:38:35;;;;;;;0.50;0.40;;;24.10;99.90;;;;;;5008975;28;20819;-77
2023/07/13 08:41:12;;;;;;;0.50;0.40;;;23.70;99.90;;;;;;5009792;28;20477;-80
2023/07/13 08:43:39;;;;;;;0.50;0.50;;;23.70;99.90;;;;;;5012448;28;20450;-80
2023/07/13 08:46:12;;;;;;;0.60;0.40;;;23.80;99.90;;;;;;5009641;28;20754;-80
2023/07/13 08:48:45;;;;;;;2.40;2.30;;;23.90;99.90;;;;;;5008877;28;20447;-80
2023/07/13 08:51:25;;;;;;;1.33;1.23;;;24.20;99.90;;;;;;5001976;28;20446;-80
2023/07/13 08:53:56;;;;;;;0.50;0.30;;;24.70;99.90;;;;;;5008040;28;20981;-79
2023/07/13 08:56:27;;;;;;;0.60;0.60;;;24.20;99.90;;;;;;5012900;28;20766;-80
2023/07/13 08:58:56;;;;;;;0.50;0.40;;;24.20;99.90;;;;;;5010782;28;20451;-80
2023/07/13 09:01:31;;;;;;;3.97;3.00;;;24.00;99.90;;;;;;5007785;28;20490;-79
2023/07/13 09:04:05;;;;;;;0.50;0.37;;;23.20;99.90;;;;;;5008842;28;20472;-80
2023/07/13 09:06:41;;;;;;;0.50;0.40;;;22.60;99.90;;;;;;5010793;28;20450;-76
2023/07/13 09:09:18;;;;;;;0.60;0.57;;;22.50;99.90;;;;;;5007308;28;20538;-80
2023/07/13 09:11:51;;;;;;;1.30;1.20;;;22.20;99.90;;;;;;5006866;28;20468;-80
2023/07/13 09:14:42;;;;;;;0.50;0.40;;;22.90;99.90;;;;;;4999563;28;20464;-79
2023/07/13 09:17:16;;;;;;;0.50;0.30;;;23.60;99.90;;;;;;5011479;28;20901;-80
2023/07/13 09:19:46;;;;;;;0.50;0.50;;;24.00;99.90;;;;;;5012665;28;20477;-80
2023/07/13 09:22:18;;;;;;;0.70;0.50;;;25.00;99.90;;;;;;5004907;28;21021;-79
2023/07/13 09:24:54;;;;;;;0.80;0.67;;;25.00;99.90;;;;;;5004916;28;20551;-81
2023/07/13 09:27:24;;;;;;;0.60;0.60;;;24.90;99.90;;;;;;5001098;28;20435;-77
2023/07/13 09:29:58;;;;;;;0.53;0.40;;;24.00;99.90;;;;;;5007550;28;20436;-78
2023/07/13 09:32:28;;;;;;;0.50;0.30;;;23.80;99.90;;;;;;5011352;28;21131;-80
2023/07/13 09:34:55;;;;;;;1.43;0.60;;;24.30;99.90;;;;;;5010927;28;20474;-78
2023/07/13 09:37:28;;;;;;;0.50;0.40;;;24.70;99.90;;;;;;5008873;28;20440;-79
2023/07/13 09:39:56;;;;;;;0.50;0.30;;;24.30;99.90;;;;;;5008328;28;20443;-79
2023/07/13 09:42:24;;;;;;;0.50;0.40;;;24.20;99.90;;;;;;5011569;28;20520;-80
2023/07/13 09:44:54;;;;;;;0.50;0.30;;;24.00;99.90;;;;;;5012461;28;20480;-77
2023/07/13 09:47:23;;;;;;;0.50;0.50;;;24.50;99.90;;;;;;5006413;28;20454;-79
2023/07/13 09:49:58;;;;;;;0.70;0.60;;;25.70;99.90;;;;;;5013321;28;20437;-80
2023/07/13 09:52:26;;;;;;;0.50;0.30;;;25.40;99.90;;;;;;5009832;28;20446;-80
2023/07/13 09:54:58;;;;;;;0.50;0.30;;;25.30;99.90;;;;;;5016772;28;20515;-80
2023/07/13 09:57:26;;;;;;;0.50;0.40;;;25.70;99.90;;;;;;5020819;28;20454;-80
2023/07/13 09:59:56;;;;;;;0.57;0.40;;;26.10;99.90;;;;;;5013637;28;20476;-78
2023/07/13 10:02:29;;;;;;;0.60;0.40;;;26.20;99.90;;;;;;5020802;28;20479;-79
2023/07/13 10:05:03;;;;;;;0.60;0.60;;;26.00;99.90;;;;;;5013339;28;20986;-79
2023/07/13 10:07:30;;;;;;;4.03;0.80;;;24.70;99.90;;;;;;5015819;28;20464;-79
2023/07/13 10:10:00;;;;;;;1.67;0.70;;;23.70;99.90;;;;;;5005537;28;20444;-81
2023/07/13 10:12:28;;;;;;;0.50;0.30;;;23.30;99.90;;;;;;5008575;28;20554;-79
2023/07/13 10:14:57;;;;;;;0.77;0.57;;;23.10;99.90;;;;;;5015749;28;20470;-79
2023/07/13 10:17:31;;;;;;;1.87;1.20;;;22.60;99.90;;;;;;5013938;28;20475;-78
2023/07/13 10:20:03;;;;;;;0.50;0.40;;;22.20;99.90;;;;;;5021897;28;20446;-80
2023/07/13 10:22:47;;;;;;;0.73;0.53;;;23.10;99.90;;;;;;5011923;28;20476;-80
2023/07/13 10:25:20;;;;;;;0.50;0.30;;;24.30;99.90;;;;;;5007239;28;20823;-78
2023/07/13 10:27:49;;;;;;;1.13;1.13;;;25.60;99.90;;;;;;5015893;28;20500;-78
2023/07/13 10:30:20;;;;;;;0.80;0.60;;;26.90;99.80;;;;;;5012478;28;20450;-80
2023/07/13 10:32:48;;;;;;;0.50;0.40;;;26.80;96.00;;;;;;5011423;28;20445;-80
2023/07/13 10:35:18;;;;;;;0.50;0.30;;;26.00;95.00;;;;;;5012452;28;20469;-81
2023/07/13 10:37:50;;;;;;;0.50;0.30;;;25.40;99.90;;;;;;5010037;28;20446;-80
2023/07/13 10:40:22;;;;;;;0.50;0.40;;;24.70;99.90;;;;;;5015017;28;20447;-80
2023/07/13 10:42:52;;;;;;;0.60;0.43;;;23.90;99.90;;;;;;5014212;28;20854;-80
2023/07/13 10:45:22;;;;;;;0.50;0.30;;;23.20;99.90;;;;;;5010788;28;20463;-80
2023/07/13 10:47:52;;;;;;;0.70;0.70;;;22.70;99.90;;;;;;5009964;28;20966;-80
2023/07/13 10:50:24;;;;;;;0.60;0.40;;;22.40;99.90;;;;;;5013434;28;20447;-77
2023/07/13 10:52:54;;;;;;;0.80;0.80;;;22.90;99.90;;;;;;5015468;28;20448;-80
2023/07/13 10:55:39;;;;;;;0.50;0.30;;;23.40;99.90;;;;;;5006301;28;20538;-80
2023/07/13 10:58:14;;;;;;;0.80;0.67;;;23.60;99.90;;;;;;5013737;28;20537;-80
2023/07/13 11:00:49;;;;;;;0.50;0.50;;;23.90;99.90;;;;;;5004882;28;20448;-78
2023/07/13 11:03:19;;;;;;;4.20;1.17;;;24.50;99.90;;;;;;5014224;28;20498;-81
2023/07/13 11:08:36;;;;;;;0.93;0.70;;;25.60;99.90;;;;;;4976436;28;20462;-81
2023/07/13 11:11:03;;;;;;;0.87;0.40;;;25.60;97.60;;;;;;4987032;28;20451;-82
2023/07/13 11:14:00;;;;;;;0.50;0.30;;;25.80;94.90;;;;;;4996698;28;20447;-81
2023/07/13 11:16:42;;;;;;;0.50;0.30;;;26.00;98.80;;;;;;4980746;28;20474;-80
2023/07/13 11:19:39;;;;;;;0.50;0.40;;;26.60;93.20;;;;;;4986624;28;20447;-81
2023/07/13 11:22:16;;;;;;;0.50;0.30;;;26.40;94.20;;;;;;4988686;28;20946;-81
2023/07/13 11:25:02;;;;;;;0.50;0.37;;;26.70;92.20;;;;;;4985845;28;20450;-79
2023/07/13 11:27:37;;;;;;;0.50;0.40;;;26.90;92.50;;;;;;4976390;28;20469;-80
2023/07/13 11:30:35;;;;;;;0.50;0.30;;;27.50;91.50;;;;;;4983932;28;20445;-80
2023/07/13 11:33:14;;;;;;;0.50;0.40;;;28.20;93.30;;;;;;4986715;28;20467;-81
2023/07/13 11:35:52;;;;;;;0.50;0.30;;;28.60;85.40;;;;;;4984330;28;20848;-80
2023/07/13 11:38:22;;;;;;;0.50;0.40;;;28.50;83.30;;;;;;4985474;28;20966;-82
2023/07/13 11:40:54;;;;;;;0.60;0.60;;;27.70;82.60;;;;;;4986807;28;20553;-82
2023/07/13 11:43:23;;;;;;;0.50;0.30;;;26.70;82.20;;;;;;4983375;28;20437;-82
2023/07/13 11:45:50;;;;;;;0.50;0.30;;;27.10;83.70;;;;;;4984387;28;20814;-79
2023/07/13 11:48:25;;;;;;;0.50;0.30;;;26.90;82.80;;;;;;4986179;28;20526;-82
2023/07/13 11:50:59;;;;;;;0.50;0.30;;;26.00;83.90;;;;;;4987430;28;20450;-79
2023/07/13 11:53:30;;;;;;;1.17;0.40;;;26.50;87.40;;;;;;4984442;28;20451;-81
2023/07/13 11:55:59;;;;;;;0.50;0.40;;;27.10;82.80;;;;;;4984997;28;20482;-83
2023/07/13 11:58:28;;;;;;;0.60;0.50;;;27.60;80.30;;;;;;4985830;28;20448;-82
2023/07/13 12:00:56;;;;;;;0.50;0.40;;;27.40;80.10;;;;;;4986519;28;20451;-79
2023/07/13 12:03:25;;;;;;;0.60;0.50;;;27.50;78.70;;;;;;4984373;28;20529;-82
2023/07/13 12:06:01;;;;;;;0.50;0.50;;;27.60;77.00;;;;;;4982406;28;20448;-82
2023/07/13 12:08:27;;;;;;;0.50;0.40;;;27.30;80.00;;;;;;4985697;28;20444;-82
2023/07/13 12:11:04;;;;;;;1.70;0.80;;;27.50;77.90;;;;;;4986128;28;20447;-80
2023/07/13 12:13:38;;;;;;;0.90;0.90;;;27.70;75.60;;;;;;4977240;28;20460;-83
2023/07/13 12:16:13;;;;;;;0.50;0.40;;;28.30;77.30;;;;;;4985190;28;20951;-81
2023/07/13 12:18:41;;;;;;;0.50;0.40;;;28.30;73.30;;;;;;4990374;28;20454;-80
2023/07/13 12:21:17;;;;;;;1.00;0.50;;;27.00;72.80;;;;;;4987099;28;20687;-83
2023/07/13 12:23:45;;;;;;;0.50;0.50;;;26.20;78.60;;;;;;4985910;28;20453;-81
2023/07/13 12:26:14;;;;;;;0.50;0.37;;;25.80;77.70;;;;;;4986701;28;20478;-83
2023/07/13 12:28:47;;;;;;;0.60;0.40;;;25.40;79.50;;;;;;4988180;28;20457;-83
2023/07/13 12:31:32;;;;;;;0.50;0.40;;;25.90;80.30;;;;;;4986857;28;20517;-81
2023/07/13 12:34:01;;;;;;;0.50;0.40;;;26.40;79.80;;;;;;4986380;28;20444;-82
2023/07/13 12:36:32;;;;;;;0.60;0.50;;;27.00;76.90;;;;;;4986833;28;20990;-81
2023/07/13 12:39:04;;;;;;;0.83;0.83;;;27.70;75.00;;;;;;4987524;28;20446;-82
2023/07/13 12:41:34;;;;;;;0.50;0.40;;;27.60;74.20;;;;;;4985547;28;20481;-82
2023/07/13 12:44:01;;;;;;;1.47;1.37;;;26.60;74.50;;;;;;4983414;28;20441;-80
2023/07/13 12:46:29;;;;;;;0.50;0.30;;;25.60;77.70;;;;;;4984685;28;20459;-83
2023/07/13 12:48:58;;;;;;;0.50;0.30;;;25.10;80.10;;;;;;4985538;28;20445;-82
2023/07/13 12:51:28;;;;;;;0.63;0.63;;;24.70;82.50;;;;;;4983653;28;20545;-83
2023/07/13 12:54:05;;;;;;;0.60;0.50;;;24.10;83.30;;;;;;4983836;28;20441;-82
2023/07/13 12:56:34;;;;;;;0.83;0.83;;;23.90;89.50;;;;;;4987347;28;20463;-83
2023/07/13 12:59:05;;;;;;;3.40;1.07;;;23.50;86.40;;;;;;4986850;28;20453;-82
2023/07/13 13:01:37;;;;;;;1.33;1.33;;;23.20;87.40;;;;;;4979810;28;20958;-84